createdAt,value
2023-05-23T00:00:33.565Z,100123.44
2023-05-23T00:03:36.630Z,100120.81
2023-05-23T00:06:39.171Z,100117.31
2023-05-23T00:09:41.923Z,100111.19
2023-05-23T00:12:44.883Z,100112.09
2023-05-23T00:15:48.701Z,100112.97
2023-05-23T00:18:51.969Z,100106.81
2023-05-23T00:21:57.150Z,100104.16
2023-05-23T00:25:02.363Z,100092.72
2023-05-23T00:28:05.789Z,100091.81
2023-05-23T00:31:08.771Z,100094.47
2023-05-23T00:34:11.566Z,100098.84
2023-05-23T00:37:14.004Z,100098.88
2023-05-23T00:40:16.458Z,100099.75
2023-05-23T00:43:21.404Z,100094.47
2023-05-23T00:46:24.074Z,100100.59
2023-05-23T00:49:28.271Z,100109.38
2023-05-23T00:52:30.980Z,100113.84
2023-05-23T00:55:33.631Z,100106.81
2023-05-23T00:58:35.915Z,100102.44
2023-05-23T01:01:38.559Z,100102.38
2023-05-23T01:04:40.985Z,100104.16
2023-05-23T01:07:48.604Z,100103.31
2023-05-23T01:10:51.744Z,100092.72
2023-05-23T01:14:04.994Z,100101.53
2023-05-23T01:17:47.553Z,100103.25
2023-05-23T01:21:01.683Z,100109.44
2023-05-23T01:24:08.808Z,100118.22
2023-05-23T01:27:23.411Z,100121.75
2023-05-23T01:30:26.657Z,100100.66
2023-05-23T01:33:30.758Z,100097.16
2023-05-23T01:36:35.592Z,100113.84
2023-05-23T01:39:38.294Z,100099.78
2023-05-23T01:42:41.188Z,100095.38
2023-05-23T01:45:43.717Z,100098.00
2023-05-23T01:48:46.490Z,100092.75
2023-05-23T01:51:49.128Z,100091.88
2023-05-23T01:54:52.004Z,100100.69
2023-05-23T01:57:57.972Z,100091.88
2023-05-23T02:01:00.777Z,100090.09
2023-05-23T02:04:04.111Z,100100.66
2023-05-23T02:07:07.467Z,100090.13
2023-05-23T02:10:10.146Z,100095.41
2023-05-23T02:13:13.994Z,100087.47
2023-05-23T02:16:16.674Z,100091.88
2023-05-23T02:19:19.262Z,100087.50
2023-05-23T02:22:25.835Z,100080.44
2023-05-23T02:25:28.440Z,100086.59
2023-05-23T02:28:31.101Z,100078.72
2023-05-23T02:31:34.362Z,100079.56
2023-05-23T02:34:38.414Z,100079.56
2023-05-23T02:37:41.049Z,100084.84
2023-05-23T02:40:43.891Z,100080.44
2023-05-23T02:43:47.475Z,100079.56
2023-05-23T02:46:51.293Z,100079.56
2023-05-23T02:49:54.156Z,100080.44
2023-05-23T02:52:56.730Z,100083.97
2023-05-23T02:55:59.443Z,100065.50
2023-05-23T02:59:01.992Z,100060.22
2023-05-23T03:02:04.517Z,100059.34
2023-05-23T03:05:07.465Z,100068.13
2023-05-23T03:08:11.079Z,100073.38
2023-05-23T03:11:13.850Z,100069.88
2023-05-23T03:14:20.158Z,100068.03
2023-05-23T03:17:25.583Z,100063.66
2023-05-23T03:20:28.013Z,100080.44
2023-05-23T03:23:31.063Z,100079.56
2023-05-23T03:26:33.896Z,100088.34
2023-05-23T03:29:36.850Z,100088.34
2023-05-23T03:32:39.452Z,100091.00
2023-05-23T03:35:42.126Z,100087.47
2023-05-23T03:38:44.620Z,100092.75
2023-05-23T03:41:47.439Z,100090.13
2023-05-23T03:44:50.307Z,100086.63
2023-05-23T03:47:52.797Z,100089.25
2023-05-23T03:50:55.471Z,100086.59
2023-05-23T03:53:58.405Z,100079.56
2023-05-23T03:57:01.645Z,100082.22
2023-05-23T04:00:14.080Z,100074.28
2023-05-23T04:03:20.506Z,100079.53
2023-05-23T04:06:24.636Z,100076.03
2023-05-23T04:09:27.048Z,100085.69
2023-05-23T04:12:30.775Z,100082.19
2023-05-23T04:15:35.628Z,100083.06
2023-05-23T04:18:48.592Z,100087.44
2023-05-23T04:21:51.099Z,100076.91
2023-05-23T04:24:53.705Z,100088.28
2023-05-23T04:27:57.662Z,100092.69
2023-05-23T04:31:02.793Z,100090.00
2023-05-23T04:34:10.002Z,100086.47
2023-05-23T04:37:14.751Z,100080.34
2023-05-23T04:40:17.246Z,100080.34
2023-05-23T04:43:42.896Z,100077.72
2023-05-23T04:47:09.270Z,100077.69
2023-05-23T04:50:36.047Z,100074.13
2023-05-23T04:53:41.281Z,100087.34
2023-05-23T04:56:45.796Z,100089.06
2023-05-23T04:59:50.917Z,100089.06
2023-05-23T05:03:13.387Z,100076.72
2023-05-23T05:06:21.332Z,100081.13
2023-05-23T05:09:24.045Z,100078.50
2023-05-23T05:12:26.950Z,100089.06
2023-05-23T05:15:30.255Z,100075.88
2023-05-23T05:18:35.063Z,100086.41
2023-05-23T05:21:38.308Z,100089.06
2023-05-23T05:24:41.213Z,100088.13
2023-05-23T05:27:43.980Z,100081.91
2023-05-23T05:30:54.334Z,100074.88
2023-05-23T05:33:58.513Z,100083.56
2023-05-23T05:37:01.159Z,100081.81
2023-05-23T05:40:07.430Z,100081.81
2023-05-23T05:43:12.103Z,100078.19
2023-05-23T05:46:15.244Z,100077.16
2023-05-23T05:49:17.830Z,100078.06
2023-05-23T05:52:21.709Z,100073.59
2023-05-23T05:55:24.308Z,100077.91
2023-05-23T05:58:29.800Z,100060.19
2023-05-23T06:01:38.066Z,100078.66
2023-05-23T06:04:41.443Z,100069.72
2023-05-23T06:07:44.309Z,100072.28
2023-05-23T06:10:46.869Z,100073.06
2023-05-23T06:13:49.252Z,100074.81
2023-05-23T06:16:51.814Z,100078.22
2023-05-23T06:19:55.421Z,100072.94
2023-05-23T06:23:00.135Z,100081.75
2023-05-23T06:26:03.809Z,100077.28
2023-05-23T06:29:06.349Z,100075.50
2023-05-23T06:32:11.004Z,100073.56
2023-05-23T06:35:13.375Z,100084.16
2023-05-23T06:38:18.966Z,100082.19
2023-05-23T06:41:21.380Z,100084.59
2023-05-23T06:44:23.988Z,100081.00
2023-05-23T06:47:29.805Z,100085.25
2023-05-23T06:50:32.299Z,100077.91
2023-05-23T06:53:34.787Z,100074.16
2023-05-23T06:56:40.896Z,100072.19
2023-05-23T06:59:43.770Z,100064.16
2023-05-23T07:02:48.839Z,100071.78
2023-05-23T07:05:54.905Z,100060.94
2023-05-23T07:08:58.892Z,100065.88
2023-05-23T07:12:02.475Z,100056.72
2023-05-23T07:15:05.859Z,100057.25
2023-05-23T07:18:08.629Z,100048.88
2023-05-23T07:21:11.994Z,100048.66
2023-05-23T07:24:14.765Z,100038.34
2023-05-23T07:27:17.831Z,100040.53
2023-05-23T07:30:21.486Z,100043.75
2023-05-23T07:33:24.341Z,100044.22
2023-05-23T07:36:29.707Z,100047.06
2023-05-23T07:39:32.388Z,100040.16
2023-05-23T07:42:37.376Z,100042.34
2023-05-23T07:45:40.161Z,100042.66
2023-05-23T07:48:42.573Z,100044.66
2023-05-23T07:51:47.745Z,100034.19
2023-05-23T07:54:50.723Z,100041.50
2023-05-23T07:57:57.418Z,100045.41
2023-05-23T08:01:03.719Z,100037.53
2023-05-23T08:04:34.502Z,100032.81
2023-05-23T08:07:39.344Z,100036.69
2023-05-23T08:10:42.811Z,100031.56
2023-05-23T08:13:52.366Z,100027.28
2023-05-23T08:17:16.052Z,100022.75
2023-05-23T08:20:19.871Z,100030.34
2023-05-23T08:23:22.678Z,100032.31
2023-05-23T08:26:30.571Z,100027.63
2023-05-23T08:29:33.469Z,100039.09
2023-05-23T08:32:36.911Z,100039.84
2023-05-23T08:35:39.717Z,100044.31
2023-05-23T08:38:45.541Z,100034.22
2023-05-23T08:41:54.055Z,100038.66
2023-05-23T08:44:56.595Z,100039.31
2023-05-23T08:48:00.715Z,100036.09
2023-05-23T08:51:04.610Z,100033.22
2023-05-23T08:54:09.329Z,100039.13
2023-05-23T08:57:11.868Z,100034.09
2023-05-23T09:00:18.588Z,100040.88
2023-05-23T09:03:22.302Z,100036.16
2023-05-23T09:06:44.255Z,100030.06
2023-05-23T09:09:49.361Z,100032.47
2023-05-23T09:12:52.607Z,100036.91
2023-05-23T09:16:21.853Z,100040.72
2023-05-23T09:19:28.499Z,100037.41
2023-05-23T09:22:37.330Z,100036.97
2023-05-23T09:25:47.523Z,100029.16
2023-05-23T09:28:50.778Z,100031.72
2023-05-23T09:31:53.293Z,100033.22
2023-05-23T09:35:00.234Z,100029.31
2023-05-23T09:38:02.777Z,100024.84
2023-05-23T09:41:06.608Z,100009.59
2023-05-23T09:44:09.338Z,100022.09
2023-05-23T09:47:12.058Z,100023.16
2023-05-23T09:50:14.738Z,100019.03
2023-05-23T09:53:17.175Z,100017.16
2023-05-23T09:56:19.757Z,100021.53
2023-05-23T09:59:24.316Z,100014.44
2023-05-23T10:02:57.623Z,100018.41
2023-05-23T10:06:10.982Z,100009.06
2023-05-23T10:09:17.257Z,100007.81
2023-05-23T10:12:41.434Z,100011.44
2023-05-23T10:15:44.216Z,99997.31
2023-05-23T10:18:49.064Z,100002.38
2023-05-23T10:21:59.635Z,99989.94
2023-05-23T10:25:04.026Z,99996.81
2023-05-23T10:28:06.512Z,99995.56
2023-05-23T10:31:09.107Z,99997.22
2023-05-23T10:34:21.566Z,99991.50
2023-05-23T10:37:32.003Z,99985.44
2023-05-23T10:40:50.980Z,99988.75
2023-05-23T10:44:23.520Z,99998.09
2023-05-23T10:47:27.566Z,99992.72
2023-05-23T10:50:34.641Z,99988.97
2023-05-23T10:53:55.595Z,99977.63
2023-05-23T10:57:05.157Z,99976.75
2023-05-23T11:00:13.419Z,99969.00
2023-05-23T11:03:16.712Z,99966.63
2023-05-23T11:06:38.779Z,99964.19
2023-05-23T11:10:04.986Z,99966.38
2023-05-23T11:13:08.546Z,99965.94
2023-05-23T11:16:33.823Z,99953.59
2023-05-23T11:19:36.460Z,99952.16
2023-05-23T11:22:40.095Z,99944.06
2023-05-23T11:25:43.571Z,99947.56
2023-05-23T11:28:59.034Z,99931.66
2023-05-23T11:32:01.658Z,99935.31
2023-05-23T11:35:08.410Z,99932.56
2023-05-23T11:38:11.255Z,99926.19
2023-05-23T11:41:13.794Z,99918.06
2023-05-23T11:44:16.390Z,99916.53
2023-05-23T11:47:19.054Z,99912.69
2023-05-23T11:50:21.751Z,99908.88
2023-05-23T11:53:26.650Z,99909.75
2023-05-23T11:56:29.372Z,99907.59
2023-05-23T11:59:31.812Z,99900.19
2023-05-23T12:02:40.507Z,99906.09
2023-05-23T12:05:44.251Z,99889.53
2023-05-23T12:08:49.459Z,99890.41
2023-05-23T12:11:51.951Z,99892.00
2023-05-23T12:14:56.614Z,99874.88
2023-05-23T12:17:59.496Z,99875.91
2023-05-23T12:21:08.108Z,99867.16
2023-05-23T12:24:21.603Z,99865.22
2023-05-23T12:27:29.656Z,99848.69
2023-05-23T12:30:40.943Z,99858.31
2023-05-23T12:33:44.638Z,99848.53
2023-05-23T12:36:50.802Z,99853.19
2023-05-23T12:39:55.893Z,99846.66
2023-05-23T12:42:58.304Z,99839.44
2023-05-23T12:46:00.878Z,99842.97
2023-05-23T12:49:03.490Z,99830.91
2023-05-23T12:52:06.569Z,99839.69
2023-05-23T12:55:09.523Z,99829.72
2023-05-23T12:58:11.906Z,99838.91
2023-05-23T13:01:14.360Z,99839.50
2023-05-23T13:04:16.896Z,99835.25
2023-05-23T13:07:19.424Z,99821.41
2023-05-23T13:10:21.939Z,99814.13
2023-05-23T13:13:24.883Z,99810.19
2023-05-23T13:16:27.644Z,99811.19
2023-05-23T13:19:30.339Z,99800.44
2023-05-23T13:22:32.792Z,99801.09
2023-05-23T13:25:35.547Z,99792.84
2023-05-23T13:28:37.935Z,99798.75
2023-05-23T13:31:40.394Z,99801.66
2023-05-23T13:34:43.132Z,99797.03
2023-05-23T13:37:45.609Z,99800.28
2023-05-23T13:40:50.511Z,99789.59
2023-05-23T13:43:54.035Z,99787.91
2023-05-23T13:46:58.522Z,99786.34
2023-05-23T13:50:01.604Z,99789.22
2023-05-23T13:53:04.070Z,99789.31
2023-05-23T13:56:06.709Z,99786.72
2023-05-23T13:59:10.062Z,99786.00
2023-05-23T14:02:12.728Z,99776.28
2023-05-23T14:05:15.908Z,99784.78
2023-05-23T14:08:18.383Z,99778.63
2023-05-23T14:11:21.015Z,99777.22
2023-05-23T14:14:23.498Z,99776.47
2023-05-23T14:17:26.075Z,99780.56
2023-05-23T14:20:29.964Z,99774.19
2023-05-23T14:23:32.549Z,99778.19
2023-05-23T14:26:34.990Z,99769.16
2023-05-23T14:29:37.550Z,99759.28
2023-05-23T14:32:40.413Z,99760.97
2023-05-23T14:35:43.636Z,99765.59
2023-05-23T14:38:46.673Z,99763.50
2023-05-23T14:41:49.185Z,99765.34
2023-05-23T14:44:53.385Z,99765.25
2023-05-23T14:47:55.888Z,99767.69
2023-05-23T14:51:01.808Z,99777.63
2023-05-23T14:54:06.377Z,99762.78
2023-05-23T14:57:09.538Z,99763.50
2023-05-23T15:00:13.368Z,99767.69
2023-05-23T15:03:15.966Z,99768.19
2023-05-23T15:06:18.483Z,99762.53
2023-05-23T15:09:21.182Z,99760.78
2023-05-23T15:12:23.662Z,99764.91
2023-05-23T15:15:27.169Z,99764.25
2023-05-23T15:18:39.921Z,99762.88
2023-05-23T15:21:50.432Z,99754.44
2023-05-23T15:24:53.681Z,99754.91
2023-05-23T15:27:56.584Z,99756.47
2023-05-23T15:30:59.685Z,99756.38
2023-05-23T15:34:02.321Z,99758.44
2023-05-23T15:37:05.263Z,99758.72
2023-05-23T15:40:08.515Z,99761.13
2023-05-23T15:43:11.129Z,99753.88
2023-05-23T15:46:13.786Z,99758.25
2023-05-23T15:49:25.001Z,99749.34
2023-05-23T15:52:29.450Z,99758.56
2023-05-23T15:55:31.890Z,99758.16
2023-05-23T15:58:34.496Z,99742.75
2023-05-23T16:01:37.602Z,99741.44
2023-05-23T16:04:40.073Z,99737.59
2023-05-23T16:07:42.509Z,99742.72
2023-05-23T16:10:45.122Z,99747.47
2023-05-23T16:13:48.010Z,99748.00
2023-05-23T16:16:50.559Z,99748.25
2023-05-23T16:19:53.059Z,99742.81
2023-05-23T16:22:55.540Z,99746.94
2023-05-23T16:25:58.007Z,99743.91
2023-05-23T16:29:00.549Z,99738.59
2023-05-23T16:32:03.160Z,99745.88
2023-05-23T16:35:06.298Z,99738.66
2023-05-23T16:38:09.039Z,99759.81
2023-05-23T16:41:11.708Z,99772.13
2023-05-23T16:44:14.347Z,99770.25
2023-05-23T16:47:17.389Z,99767.66
2023-05-23T16:50:19.984Z,99783.78
2023-05-23T16:53:22.542Z,99787.91
2023-05-23T16:56:25.097Z,99788.31
2023-05-23T16:59:28.365Z,99787.19
2023-05-23T17:02:31.181Z,99781.38
2023-05-23T17:05:34.191Z,99787.34
2023-05-23T17:08:36.735Z,99791.22
2023-05-23T17:11:39.406Z,99798.59
2023-05-23T17:14:41.993Z,99809.34
2023-05-23T17:17:44.647Z,99800.34
2023-05-23T17:20:47.387Z,99808.56
2023-05-23T17:23:49.861Z,99814.38
2023-05-23T17:26:52.470Z,99832.53
2023-05-23T17:29:55.007Z,99862.38
2023-05-23T17:32:57.761Z,99888.28
2023-05-23T17:36:00.187Z,99904.69
2023-05-23T17:39:02.666Z,99910.22
2023-05-23T17:42:05.709Z,99908.34
2023-05-23T17:45:09.620Z,99911.16
2023-05-23T17:48:12.495Z,99912.72
2023-05-23T17:51:15.316Z,99915.16
2023-05-23T17:54:17.809Z,99931.63
2023-05-23T17:57:20.436Z,99945.66
2023-05-23T18:00:22.800Z,99948.63
2023-05-23T18:03:25.110Z,99965.03
2023-05-23T18:06:29.016Z,99959.38
2023-05-23T18:09:32.031Z,99957.03
2023-05-23T18:12:34.857Z,99962.78
2023-05-23T18:15:37.483Z,99967.44
2023-05-23T18:18:39.993Z,99968.25
2023-05-23T18:21:43.536Z,99963.97
2023-05-23T18:24:48.430Z,99970.19
2023-05-23T18:27:51.066Z,99977.53
2023-05-23T18:30:53.555Z,99989.31
2023-05-23T18:33:56.063Z,99997.41
2023-05-23T18:36:58.577Z,99997.44
2023-05-23T18:40:00.994Z,99999.28
2023-05-23T18:43:04.095Z,99994.00
2023-05-23T18:46:06.882Z,100002.22
2023-05-23T18:49:09.432Z,100008.44
2023-05-23T18:52:12.003Z,100009.44
2023-05-23T18:55:15.016Z,100018.44
2023-05-23T18:58:17.658Z,100022.91
2023-05-23T19:01:20.277Z,100027.31
2023-05-23T19:04:22.729Z,100041.31
2023-05-23T19:07:25.225Z,100042.00
2023-05-23T19:10:27.553Z,100042.03
2023-05-23T19:13:29.849Z,100040.97
2023-05-23T19:16:32.805Z,100029.41
2023-05-23T19:19:36.170Z,100034.75
2023-05-23T19:22:50.776Z,100037.50
2023-05-23T19:25:54.069Z,100032.97
2023-05-23T19:28:56.659Z,100029.41
2023-05-23T19:31:58.925Z,100039.31
2023-05-23T19:35:01.726Z,100039.38
2023-05-23T19:38:04.582Z,100030.69
2023-05-23T19:41:07.334Z,100026.41
2023-05-23T19:44:09.991Z,100033.78
2023-05-23T19:47:12.505Z,100032.13
2023-05-23T19:50:15.210Z,100020.53
2023-05-23T19:53:17.675Z,100005.59
2023-05-23T19:56:22.180Z,100002.81
2023-05-23T19:59:24.750Z,99989.53
2023-05-23T20:02:27.821Z,99994.00
2023-05-23T20:05:30.671Z,100014.63
2023-05-23T20:08:33.134Z,100009.22
2023-05-23T20:11:35.774Z,100006.63
2023-05-23T20:14:38.383Z,100011.84
2023-05-23T20:17:40.894Z,100013.66
2023-05-23T20:20:46.875Z,100005.84
2023-05-23T20:23:49.263Z,100014.91
2023-05-23T20:26:51.647Z,100010.47
2023-05-23T20:29:54.135Z,100006.81
2023-05-23T20:32:56.577Z,100006.78
2023-05-23T20:35:59.328Z,99999.72
2023-05-23T20:39:01.742Z,99995.19
2023-05-23T20:42:05.864Z,99995.50
2023-05-23T20:45:09.674Z,99996.75
2023-05-23T20:48:12.112Z,99989.59
2023-05-23T20:51:14.678Z,99974.53
2023-05-23T20:54:17.119Z,99986.88
2023-05-23T20:57:19.950Z,99997.59
2023-05-23T21:00:22.402Z,99998.53
2023-05-23T21:03:24.887Z,100007.50
2023-05-23T21:06:27.382Z,100025.28
2023-05-23T21:09:29.867Z,100041.16
2023-05-23T21:12:49.352Z,100056.34
2023-05-23T21:15:51.881Z,100063.56
2023-05-23T21:18:54.262Z,100067.09
2023-05-23T21:21:56.761Z,100063.72
2023-05-23T21:24:59.215Z,100062.84
2023-05-23T21:28:01.663Z,100060.19
2023-05-23T21:31:04.160Z,100074.09
2023-05-23T21:34:21.732Z,100083.94
2023-05-23T21:37:25.558Z,100088.38
2023-05-23T21:40:27.961Z,100091.81
2023-05-23T21:43:30.327Z,100088.34
2023-05-23T21:46:32.984Z,100091.03
2023-05-23T21:49:35.649Z,100095.53
2023-05-23T21:52:38.581Z,100090.28
2023-05-23T21:55:41.312Z,100088.53
2023-05-23T21:58:43.859Z,100098.34
2023-05-23T22:01:46.432Z,100095.81
2023-05-23T22:04:49.068Z,100100.97
2023-05-23T22:07:51.567Z,100108.97
2023-05-23T22:10:53.964Z,100109.81
2023-05-23T22:13:56.642Z,100122.19
2023-05-23T22:17:02.367Z,100116.03
2023-05-23T22:20:05.534Z,100117.81
2023-05-23T22:23:09.977Z,100116.13
2023-05-23T22:26:12.900Z,100113.53
2023-05-23T22:29:15.457Z,100103.97
2023-05-23T22:32:17.956Z,100108.38
2023-05-23T22:35:20.613Z,100112.84
2023-05-23T22:38:22.870Z,100111.13
2023-05-23T22:41:25.235Z,100118.25
2023-05-23T22:44:27.678Z,100117.38
2023-05-23T22:47:32.418Z,100112.00
2023-05-23T22:50:36.172Z,100111.13
2023-05-23T22:53:39.039Z,100112.00
2023-05-23T22:56:41.461Z,100114.69
2023-05-23T22:59:43.894Z,100115.59
2023-05-23T23:02:46.467Z,100114.72
2023-05-23T23:05:49.501Z,100113.88
2023-05-23T23:08:51.965Z,100113.84
2023-05-23T23:11:54.548Z,100111.13
2023-05-23T23:14:57.169Z,100105.00
2023-05-23T23:17:59.787Z,100113.81
2023-05-23T23:21:02.195Z,100104.19
2023-05-23T23:24:05.749Z,100104.13
2023-05-23T23:27:08.468Z,100091.88
2023-05-23T23:30:11.011Z,100104.13
2023-05-23T23:33:14.537Z,100094.41
2023-05-23T23:36:17.383Z,100098.75
2023-05-23T23:39:20.150Z,100105.75
2023-05-23T23:42:22.458Z,100098.69
2023-05-23T23:45:24.981Z,100101.41
2023-05-23T23:48:27.349Z,100104.91
2023-05-23T23:51:29.973Z,100097.81
2023-05-23T23:54:32.542Z,100102.22
2023-05-23T23:57:35.553Z,100107.53
